Time;durP1;ratioP1;P1;durP2;ratioP2;P2;SDS_P1;SDS_P2;PMS_P1;PMS_P2;Temp;Humidity;BMP_temperature;BMP_pressure;BME280_temperature;BME280_humidity;BME280_pressure;Samples;Min_cycle;Max_cycle;Signal;HPM_P1;HPM_P2
2023/05/18 00:01:40;;;;;;;2.55;1.33;;;;;;;21.20;60.44;101108.41;5075813;28;20036;-57
2023/05/18 00:04:08;;;;;;;2.63;1.08;;;;;;;21.19;60.47;101117.47;5075693;28;20044;-57
2023/05/18 00:06:36;;;;;;;3.03;1.13;;;;;;;21.20;60.38;101121.03;5075905;28;20045;-57
2023/05/18 00:09:04;;;;;;;1.48;0.80;;;;;;;21.20;60.48;101121.03;5075614;28;20045;-57
2023/05/18 00:11:32;;;;;;;2.22;0.90;;;;;;;21.19;60.33;101114.78;5075636;28;20063;-57
2023/05/18 00:13:59;;;;;;;1.85;1.05;;;;;;;21.18;60.47;101115.75;5075482;28;20048;-57
2023/05/18 00:16:26;;;;;;;1.88;1.02;;;;;;;21.18;60.35;101110.38;5075174;28;20404;-57
2023/05/18 00:18:55;;;;;;;2.65;0.93;;;;;;;21.19;60.45;101122.88;5074982;28;20381;-57
2023/05/18 00:21:29;;;;;;;2.88;1.00;;;;;;;21.19;60.38;101124.72;5074107;28;20048;-48
2023/05/18 00:23:57;;;;;;;2.72;1.10;;;;;;;21.18;60.28;101118.44;5075290;28;20052;-51
2023/05/18 00:26:25;;;;;;;1.73;0.85;;;;;;;21.17;60.36;101130.22;5075549;28;20056;-50
2023/05/18 00:28:53;;;;;;;1.95;0.88;;;;;;;21.16;60.40;101131.22;5074269;28;20053;-48
2023/05/18 00:31:20;;;;;;;1.90;0.80;;;;;;;21.16;60.36;101125.81;5075331;28;20041;-57
2023/05/18 00:33:48;;;;;;;3.05;1.15;;;;;;;21.16;60.51;101130.38;5074891;28;20061;-57
2023/05/18 00:36:15;;;;;;;2.88;1.00;;;;;;;21.16;60.29;101123.13;5074945;28;20044;-57
2023/05/18 00:38:42;;;;;;;2.38;1.00;;;;;;;21.16;60.21;101130.38;5075056;28;20052;-57
2023/05/18 00:41:10;;;;;;;2.08;1.02;;;;;;;21.16;60.23;101128.53;5073875;28;20078;-57
2023/05/18 00:43:41;;;;;;;3.70;0.82;;;;;;;21.15;60.20;101132.22;5074543;28;20060;-57
2023/05/18 00:46:10;;;;;;;2.10;0.93;;;;;;;21.15;60.19;101134.91;5074566;28;20533;-57
2023/05/18 00:48:38;;;;;;;2.47;1.00;;;;;;;21.16;60.26;101135.75;5074696;28;20484;-57
2023/05/18 00:51:05;;;;;;;1.67;0.98;;;;;;;21.15;60.21;101136.75;5074599;28;20045;-57
2023/05/18 00:53:32;;;;;;;1.92;0.88;;;;;;;21.15;60.20;101134.91;5073736;28;20055;-57
2023/05/18 00:56:00;;;;;;;3.00;0.95;;;;;;;21.15;60.20;101126.81;5074237;28;20416;-57
2023/05/18 00:58:28;;;;;;;2.03;0.80;;;;;;;21.14;60.30;101132.31;5073074;28;20056;-57
2023/05/18 01:00:56;;;;;;;3.03;1.00;;;;;;;21.15;60.26;101140.28;5074209;28;20060;-57
2023/05/18 01:03:25;;;;;;;1.67;1.02;;;;;;;21.14;60.17;101145.78;5074446;28;20405;-57
2023/05/18 01:05:56;;;;;;;2.33;0.90;;;;;;;21.13;60.14;101128.78;5074228;28;20361;-57
2023/05/18 01:08:26;;;;;;;2.45;0.68;;;;;;;21.13;60.08;101131.47;5073261;28;20400;-57
2023/05/18 01:11:17;;;;;;;2.40;0.85;;;;;;;21.13;60.12;101130.63;5073185;28;20052;-57
2023/05/18 01:14:19;;;;;;;2.08;0.80;;;;;;;21.14;60.13;101135.03;5074326;28;20056;-57
2023/05/18 01:16:53;;;;;;;2.47;0.80;;;;;;;21.13;60.06;101144.94;5073211;28;20044;-57
2023/05/18 01:19:57;;;;;;;2.45;1.10;;;;;;;21.12;60.09;101151.31;5072784;28;20052;-57
2023/05/18 01:22:47;;;;;;;1.77;0.88;;;;;;;21.12;60.00;101134.31;5073103;28;20056;-57
2023/05/18 01:25:50;;;;;;;1.67;0.57;;;;;;;21.12;60.10;101145.94;5073387;28;20044;-57
2023/05/18 01:28:27;;;;;;;4.72;1.00;;;;;;;21.12;60.11;101137.84;5074063;28;20468;-57
2023/05/18 01:30:55;;;;;;;1.92;0.65;;;;;;;21.11;60.16;101136.16;5074046;28;20055;-49
2023/05/18 01:33:25;;;;;;;2.42;1.23;;;;;;;21.11;60.02;101125.41;5072746;28;20047;-49
2023/05/18 01:35:53;;;;;;;2.22;1.00;;;;;;;21.11;60.04;101128.09;5073743;28;20059;-50
2023/05/18 01:38:23;;;;;;;1.63;0.70;;;;;;;21.10;59.95;101120.97;5073830;28;20055;-49
2023/05/18 01:41:10;;;;;;;2.13;1.08;;;;;;;21.10;60.03;101123.66;5074086;28;20361;-57
2023/05/18 01:43:45;;;;;;;3.92;1.00;;;;;;;21.10;59.91;101122.81;5073700;28;20400;-57
2023/05/18 01:46:31;;;;;;;2.08;0.93;;;;;;;21.10;59.86;101120.97;5056460;28;20574;-57
2023/05/18 01:49:19;;;;;;;2.03;0.73;;;;;;;21.10;59.99;101129.06;5072311;28;20059;-57
2023/05/18 01:51:49;;;;;;;2.38;1.00;;;;;;;21.10;59.97;101120.97;5072526;28;20059;-57
2023/05/18 01:54:19;;;;;;;1.48;0.50;;;;;;;21.11;59.97;101135.31;5072086;28;20044;-57
2023/05/18 01:56:49;;;;;;;1.95;0.80;;;;;;;21.11;59.90;101127.25;5073559;28;20119;-57
2023/05/18 01:59:17;;;;;;;2.72;0.90;;;;;;;21.09;60.19;101124.66;5072024;28;20056;-57
2023/05/18 02:01:45;;;;;;;2.15;0.90;;;;;;;21.10;59.84;101118.28;5056099;28;20048;-57
2023/05/18 02:04:14;;;;;;;3.15;0.77;;;;;;;21.09;59.94;101121.97;5073579;28;20060;-57
2023/05/18 02:06:41;;;;;;;3.45;0.80;;;;;;;21.09;59.83;101119.28;5071830;28;20056;-57
2023/05/18 02:09:09;;;;;;;2.78;0.77;;;;;;;21.09;59.76;101116.59;5072060;28;20048;-57
2023/05/18 02:11:36;;;;;;;2.00;0.77;;;;;;;21.09;59.82;101108.50;5073417;28;20053;-57
2023/05/18 02:14:03;;;;;;;1.60;0.60;;;;;;;21.08;59.85;101101.44;5073409;28;20040;-57
2023/05/18 02:16:31;;;;;;;2.85;0.93;;;;;;;21.08;59.78;101104.13;5072407;28;20045;-57
2023/05/18 02:18:59;;;;;;;2.38;0.80;;;;;;;21.07;59.66;101102.44;5073286;28;20048;-57
2023/05/18 02:21:27;;;;;;;1.95;0.80;;;;;;;21.08;59.84;101105.97;5073543;28;20408;-49
2023/05/18 02:23:54;;;;;;;1.48;0.82;;;;;;;21.07;59.62;101105.13;5073443;28;20040;-49
2023/05/18 02:26:21;;;;;;;1.90;0.90;;;;;;;21.07;59.63;101115.03;5073375;28;20049;-49
2023/05/18 02:28:51;;;;;;;1.92;0.80;;;;;;;21.07;59.56;101109.66;5072373;28;20052;-50
2023/05/18 02:31:19;;;;;;;1.25;0.70;;;;;;;21.07;59.67;101115.03;5073324;28;20049;-57
2023/05/18 02:33:46;;;;;;;3.95;0.90;;;;;;;21.07;59.74;101113.19;5072944;28;20041;-57
2023/05/18 02:36:14;;;;;;;1.63;0.70;;;;;;;21.07;59.64;101115.03;5072236;28;20492;-57
2023/05/18 02:38:42;;;;;;;3.55;0.70;;;;;;;21.06;59.39;101119.53;5073387;28;20052;-57
2023/05/18 02:41:11;;;;;;;2.20;0.88;;;;;;;21.07;59.44;101123.13;5071749;28;20489;-49
2023/05/18 02:43:38;;;;;;;3.03;0.77;;;;;;;21.06;59.64;101119.53;5072052;28;20044;-49
2023/05/18 02:46:07;;;;;;;2.25;0.80;;;;;;;21.06;59.63;101124.94;5072132;28;20060;-49
2023/05/18 02:48:35;;;;;;;1.73;0.63;;;;;;;21.06;59.57;101126.78;5071556;28;20045;-49
2023/05/18 02:51:02;;;;;;;1.83;0.55;;;;;;;21.06;59.49;101116.84;5073710;28;20075;-57
2023/05/18 02:53:30;;;;;;;1.65;0.70;;;;;;;21.06;59.36;101113.31;5072264;28;20052;-57
2023/05/18 02:56:03;;;;;;;1.25;0.50;;;;;;;21.06;59.45;101122.25;5071679;28;20056;-57
2023/05/18 02:58:56;;;;;;;2.42;0.85;;;;;;;21.05;59.53;101109.78;5072945;28;20610;-57
2023/05/18 03:01:36;;;;;;;3.33;0.50;;;;;;;21.06;59.35;101124.09;5071642;28;20060;-51
2023/05/18 03:04:03;;;;;;;2.20;0.95;;;;;;;21.05;59.46;101119.69;5072565;28;20047;-49
2023/05/18 03:06:31;;;;;;;1.73;0.88;;;;;;;21.06;59.41;101124.09;5071723;28;20044;-51
2023/05/18 03:08:59;;;;;;;1.33;0.80;;;;;;;21.04;59.45;101124.22;5071786;28;20063;-49
2023/05/18 03:11:34;;;;;;;1.60;0.75;;;;;;;21.04;59.41;101121.53;5072157;28;20059;-49
2023/05/18 03:14:02;;;;;;;1.40;0.60;;;;;;;21.05;59.47;101119.69;5071950;28;20055;-49
2023/05/18 03:16:30;;;;;;;2.40;0.70;;;;;;;21.05;59.56;101115.16;5071661;28;20056;-50
2023/05/18 03:18:57;;;;;;;1.33;0.47;;;;;;;21.05;59.75;101111.63;5071751;28;20057;-50
2023/05/18 03:21:34;;;;;;;2.63;0.70;;;;;;;21.05;59.46;101100.84;5071490;28;20416;-57
2023/05/18 03:24:02;;;;;;;2.15;1.20;;;;;;;21.04;59.55;101104.53;5071934;28;20503;-57
2023/05/18 03:26:31;;;;;;;2.55;0.70;;;;;;;21.04;59.51;101105.38;5075195;28;20482;-57
2023/05/18 03:29:00;;;;;;;1.95;0.60;;;;;;;21.05;59.63;101106.22;5075270;28;20056;-57
2023/05/18 03:31:28;;;;;;;1.67;0.73;;;;;;;21.05;59.37;101109.78;5076538;28;20052;-49
2023/05/18 03:33:58;;;;;;;1.05;0.50;;;;;;;21.04;59.47;101113.47;5074949;28;20044;-48
2023/05/18 03:36:26;;;;;;;1.88;0.60;;;;;;;21.05;59.50;101123.22;5076162;28;20048;-49
2023/05/18 03:38:54;;;;;;;1.38;0.70;;;;;;;21.05;59.71;101127.78;5075146;28;20052;-49
2023/05/18 03:41:22;;;;;;;1.40;0.55;;;;;;;21.05;59.88;101134.00;5074844;28;20052;-58
2023/05/18 03:43:51;;;;;;;1.38;0.75;;;;;;;21.05;59.65;101131.31;5074705;28;20053;-58
2023/05/18 03:46:18;;;;;;;2.88;1.00;;;;;;;21.06;59.52;101134.84;5076098;28;20063;-58
2023/05/18 03:48:46;;;;;;;1.90;0.47;;;;;;;21.06;59.39;101145.63;5074575;28;20053;-57
2023/05/18 03:51:18;;;;;;;2.10;0.70;;;;;;;21.04;59.22;101144.91;5075185;28;20045;-57
2023/05/18 03:53:46;;;;;;;1.15;0.38;;;;;;;21.05;59.47;101146.63;5074374;28;20052;-58
2023/05/18 03:56:14;;;;;;;2.17;0.70;;;;;;;21.05;59.26;101144.75;5075816;28;20048;-57
2023/05/18 03:58:41;;;;;;;1.98;0.90;;;;;;;20.99;58.55;101151.56;5075633;28;20049;-58
2023/05/18 04:01:09;;;;;;;2.03;0.90;;;;;;;20.97;58.60;101149.97;5074556;28;20052;-49
2023/05/18 04:03:37;;;;;;;1.63;0.65;;;;;;;20.96;59.06;101151.81;5074485;28;20044;-49
2023/05/18 04:06:05;;;;;;;1.52;0.77;;;;;;;20.97;59.43;101148.13;5075503;28;20048;-49
2023/05/18 04:08:33;;;;;;;1.40;0.47;;;;;;;20.97;59.49;101147.28;5075110;28;20052;-49
2023/05/18 04:11:00;;;;;;;1.85;0.52;;;;;;;20.97;59.56;101153.50;5074029;28;20056;-48
2023/05/18 04:13:28;;;;;;;1.75;0.60;;;;;;;20.97;59.57;101155.34;5073675;28;20049;-49
2023/05/18 04:15:59;;;;;;;1.70;0.60;;;;;;;20.97;59.53;101158.06;5073595;28;20412;-49
2023/05/18 04:18:28;;;;;;;1.27;0.50;;;;;;;20.98;59.54;101170.50;5075109;28;20048;-49
2023/05/18 04:20:56;;;;;;;2.70;0.60;;;;;;;20.97;59.58;101163.44;5073762;28;20053;-52
2023/05/18 04:23:24;;;;;;;3.03;0.65;;;;;;;20.98;59.48;101166.00;5073866;28;20060;-50
2023/05/18 04:25:52;;;;;;;1.85;0.50;;;;;;;20.98;59.73;101170.50;5073573;28;20044;-52
2023/05/18 04:28:19;;;;;;;1.50;0.50;;;;;;;20.99;59.41;101180.31;5056885;28;20535;-49
2023/05/18 04:30:46;;;;;;;1.35;0.50;;;;;;;20.97;59.55;101177.75;5073782;28;20052;-50
2023/05/18 04:33:15;;;;;;;2.10;0.68;;;;;;;20.98;59.60;101189.34;5075044;28;20233;-51
2023/05/18 04:35:44;;;;;;;2.10;0.65;;;;;;;20.98;59.49;101194.75;5072580;28;20373;-49
2023/05/18 04:38:13;;;;;;;1.55;0.60;;;;;;;20.98;59.58;101197.44;5073862;28;20056;-51
2023/05/18 04:40:42;;;;;;;2.75;0.85;;;;;;;20.99;59.61;101204.53;5074811;28;20048;-50
2023/05/18 04:43:12;;;;;;;2.35;0.55;;;;;;;20.99;59.55;101207.22;5073230;28;20045;-52
2023/05/18 04:45:39;;;;;;;1.60;0.70;;;;;;;20.98;59.57;101209.06;5073584;28;20041;-52
2023/05/18 04:48:07;;;;;;;1.70;0.80;;;;;;;20.98;59.45;101203.69;5073694;28;20044;-51
2023/05/18 04:50:35;;;;;;;2.50;0.88;;;;;;;21.00;59.42;101208.94;5073426;28;20060;-57
2023/05/18 04:53:06;;;;;;;2.30;0.63;;;;;;;21.00;59.60;101203.53;5073440;28;20044;-58
2023/05/18 04:55:34;;;;;;;2.08;0.80;;;;;;;20.99;59.53;101218.00;5073372;28;20048;-57
2023/05/18 04:58:04;;;;;;;1.63;0.80;;;;;;;20.98;59.84;101209.06;5073403;28;20063;-58
2023/05/18 05:00:32;;;;;;;1.20;0.57;;;;;;;20.98;59.46;101214.47;5073569;28;20048;-58
2023/05/18 05:02:59;;;;;;;1.45;0.60;;;;;;;20.99;59.58;101207.22;5074290;28;20372;-58
2023/05/18 05:05:28;;;;;;;1.77;0.68;;;;;;;20.99;59.52;101218.84;5074398;28;20048;-58
2023/05/18 05:07:57;;;;;;;1.30;0.60;;;;;;;20.99;59.56;101209.91;5074205;28;20047;-58
2023/05/18 05:10:26;;;;;;;2.00;0.57;;;;;;;20.99;59.53;101215.31;5072812;28;20052;-52
2023/05/18 05:12:54;;;;;;;1.73;0.70;;;;;;;20.99;59.49;101215.31;5072497;28;20044;-49
2023/05/18 05:15:21;;;;;;;1.58;0.60;;;;;;;20.99;59.53;101218.00;5074127;28;20048;-49
2023/05/18 05:17:50;;;;;;;1.50;0.60;;;;;;;20.99;59.63;101218.00;5073140;28;20048;-49
2023/05/18 05:20:18;;;;;;;2.17;0.90;;;;;;;20.99;59.52;101215.31;5072934;28;20060;-50
2023/05/18 05:22:46;;;;;;;2.53;0.90;;;;;;;20.98;59.54;101217.16;5073183;28;20068;-50
2023/05/18 05:25:16;;;;;;;1.55;0.80;;;;;;;20.98;59.66;101225.22;5072648;28;20048;-48
2023/05/18 05:27:44;;;;;;;1.65;0.75;;;;;;;20.99;59.58;101218.00;5072556;28;20056;-48
2023/05/18 05:30:12;;;;;;;2.47;0.82;;;;;;;20.99;59.51;101226.06;5072927;28;20052;-50
2023/05/18 05:32:41;;;;;;;1.88;0.80;;;;;;;20.98;59.54;101225.22;5072633;28;20053;-50
2023/05/18 05:35:10;;;;;;;1.80;0.80;;;;;;;20.99;59.64;101215.31;5072764;28;20430;-48
2023/05/18 05:37:37;;;;;;;1.58;0.70;;;;;;;20.98;59.64;101216.28;5072561;28;20049;-49
2023/05/18 05:40:08;;;;;;;3.28;0.60;;;;;;;21.01;59.71;101217.84;5072453;28;20349;-58
2023/05/18 05:42:41;;;;;;;1.25;0.63;;;;;;;21.00;60.03;101217.00;5072675;28;20055;-58
2023/05/18 05:45:09;;;;;;;1.17;0.60;;;;;;;20.99;59.76;101218.00;5073788;28;20052;-58
2023/05/18 05:47:44;;;;;;;1.48;0.60;;;;;;;20.99;59.84;101226.06;5072506;28;20049;-57
2023/05/18 05:50:12;;;;;;;3.33;0.90;;;;;;;21.01;59.80;101225.94;5072877;28;20059;-58
2023/05/18 05:52:40;;;;;;;3.15;1.00;;;;;;;20.99;59.86;101218.84;5072317;28;20496;-57
2023/05/18 05:55:08;;;;;;;1.98;0.90;;;;;;;21.01;60.05;101231.31;5072459;28;20052;-60
2023/05/18 05:57:36;;;;;;;1.40;0.60;;;;;;;21.01;59.92;101234.00;5072465;28;20063;-60
2023/05/18 06:00:05;;;;;;;8.18;1.13;;;;;;;21.00;59.93;101230.47;5072789;28;20048;-60
2023/05/18 06:02:47;;;;;;;4.32;1.25;;;;;;;21.01;59.88;101244.78;5080255;28;20060;-56
2023/05/18 06:05:19;;;;;;;2.33;0.70;;;;;;;21.00;60.04;101241.22;5072428;28;20377;-56
2023/05/18 06:07:47;;;;;;;1.58;0.70;;;;;;;21.00;60.02;101249.31;5072097;28;20057;-56
2023/05/18 06:10:14;;;;;;;2.72;0.63;;;;;;;21.01;59.87;101245.63;5072331;28;20497;-56
2023/05/18 06:12:42;;;;;;;1.77;0.63;;;;;;;21.00;59.96;101252.00;5072267;28;20052;-56
2023/05/18 06:15:10;;;;;;;2.35;0.88;;;;;;;20.99;59.98;101253.84;5072249;28;20064;-56
2023/05/18 06:17:39;;;;;;;2.40;0.70;;;;;;;20.99;59.89;101253.00;5072408;28;20080;-56
2023/05/18 06:20:07;;;;;;;3.33;1.00;;;;;;;20.98;59.92;101251.25;5072229;28;20476;-56
2023/05/18 06:22:35;;;;;;;1.98;0.93;;;;;;;20.98;59.75;101249.44;5073244;28;20055;-56
2023/05/18 06:25:23;;;;;;;2.33;0.73;;;;;;;20.98;59.77;101248.56;5072406;28;20071;-56
2023/05/18 06:28:11;;;;;;;1.90;0.90;;;;;;;20.98;59.77;101245.88;5072818;28;20045;-56
2023/05/18 06:31:02;;;;;;;2.95;1.20;;;;;;;20.97;59.90;101250.41;5070364;28;20053;-56
2023/05/18 06:33:37;;;;;;;1.60;0.80;;;;;;;20.98;59.80;101246.75;5071607;28;20061;-56
2023/05/18 06:36:04;;;;;;;3.45;1.10;;;;;;;20.97;59.97;101241.47;5072030;28;20044;-56
2023/05/18 06:38:32;;;;;;;3.30;1.08;;;;;;;20.97;59.89;101245.03;5071544;28;20056;-56
2023/05/18 06:40:59;;;;;;;2.58;1.08;;;;;;;20.98;59.87;101246.75;5072060;28;20053;-50
2023/05/18 06:43:27;;;;;;;1.83;0.85;;;;;;;20.97;59.81;101245.03;5073060;28;20045;-50
2023/05/18 06:46:23;;;;;;;2.38;0.85;;;;;;;20.97;59.84;101234.25;5072089;28;20049;-52
2023/05/18 06:49:01;;;;;;;3.08;0.80;;;;;;;20.98;59.84;101248.56;5071876;28;20056;-51
2023/05/18 06:51:30;;;;;;;2.00;0.93;;;;;;;20.95;60.04;101238.94;5071889;28;20067;-56
2023/05/18 06:53:57;;;;;;;2.78;1.17;;;;;;;20.98;59.89;101252.13;5073144;28;20063;-56
2023/05/18 06:56:25;;;;;;;1.88;0.73;;;;;;;20.98;59.95;101246.75;5072018;28;20055;-56
2023/05/18 06:58:54;;;;;;;1.98;1.17;;;;;;;20.98;59.98;101245.88;5072107;28;20476;-56
2023/05/18 07:01:21;;;;;;;3.25;1.35;;;;;;;20.98;59.90;101243.19;5076784;28;20051;-56
2023/05/18 07:03:49;;;;;;;4.35;2.13;;;;;;;20.97;59.71;101249.56;5075676;28;20052;-56
2023/05/18 07:06:16;;;;;;;5.22;2.03;;;;;;;20.96;59.51;101248.72;5076441;28;20060;-56
2023/05/18 07:08:44;;;;;;;3.13;1.73;;;;;;;20.98;59.55;101248.56;5076533;28;20060;-55
2023/05/18 07:11:11;;;;;;;2.97;1.15;;;;;;;20.98;59.83;101252.13;5076351;28;20049;-50
2023/05/18 07:13:39;;;;;;;2.40;1.30;;;;;;;20.99;59.73;101251.16;5076216;28;20056;-50
2023/05/18 07:16:06;;;;;;;2.70;1.50;;;;;;;21.00;59.63;101252.00;5096015;28;20051;-50
2023/05/18 07:18:34;;;;;;;2.38;1.17;;;;;;;21.01;59.65;101252.84;5096288;28;20039;-51
2023/05/18 07:21:01;;;;;;;2.75;1.60;;;;;;;21.02;59.53;101243.78;5095930;28;20048;-49
2023/05/18 07:23:28;;;;;;;3.47;1.83;;;;;;;21.00;59.18;101241.22;5095812;28;20056;-54
2023/05/18 07:25:56;;;;;;;3.15;2.17;;;;;;;21.02;59.27;101246.47;5096286;28;20039;-49
2023/05/18 07:28:23;;;;;;;2.28;1.58;;;;;;;21.02;59.27;101243.78;5096081;28;20116;-52
2023/05/18 07:30:51;;;;;;;3.47;2.00;;;;;;;21.06;58.83;101234.44;5096161;28;20051;-49
2023/05/18 07:33:18;;;;;;;4.28;1.75;;;;;;;21.07;58.52;101223.56;5095832;28;20060;-50
2023/05/18 07:35:46;;;;;;;4.22;1.58;;;;;;;21.11;58.44;101235.78;5096257;28;20044;-49
2023/05/18 07:38:13;;;;;;;3.47;1.33;;;;;;;21.13;58.50;101228.41;5095830;28;20404;-52
2023/05/18 07:40:40;;;;;;;2.58;1.50;;;;;;;21.15;58.65;101226.44;5094969;28;20059;-56
2023/05/18 07:43:08;;;;;;;2.35;0.90;;;;;;;21.19;58.71;101227.03;5096015;28;20071;-56
2023/05/18 07:45:35;;;;;;;3.17;1.35;;;;;;;21.20;58.72;101229.56;5095779;28;20055;-56
2023/05/18 07:48:03;;;;;;;3.22;1.20;;;;;;;21.20;58.34;101229.56;5095993;28;20353;-56
2023/05/18 07:50:30;;;;;;;3.05;1.02;;;;;;;21.22;57.76;101232.13;5095625;28;20048;-55
2023/05/18 07:52:57;;;;;;;2.35;1.42;;;;;;;21.23;57.46;101234.69;5095644;28;20048;-56
2023/05/18 07:55:25;;;;;;;1.88;1.00;;;;;;;21.26;57.57;101230.88;5095646;28;20040;-55
2023/05/18 07:57:52;;;;;;;3.60;0.95;;;;;;;21.29;58.09;101237.84;5095508;28;20059;-56
2023/05/18 08:00:20;;;;;;;2.25;0.90;;;;;;;21.30;58.23;101242.22;5095629;28;20040;-55
2023/05/18 08:02:47;;;;;;;2.70;1.00;;;;;;;21.31;58.48;101243.91;5095679;28;20044;-56
2023/05/18 08:05:15;;;;;;;1.98;0.88;;;;;;;21.32;58.54;101248.34;5095158;28;20040;-56
2023/05/18 08:07:42;;;;;;;3.10;0.95;;;;;;;21.32;58.56;101248.34;5095205;28;20048;-56
2023/05/18 08:10:10;;;;;;;2.05;0.90;;;;;;;21.32;58.62;101249.22;5095060;28;20044;-56
2023/05/18 08:12:37;;;;;;;1.50;0.70;;;;;;;21.31;58.57;101243.91;5095023;28;20052;-56
2023/05/18 08:15:05;;;;;;;2.40;1.10;;;;;;;21.31;58.46;101247.50;5094894;28;20365;-55
2023/05/18 08:17:33;;;;;;;1.60;0.73;;;;;;;21.33;58.11;101244.69;5095190;28;20048;-56
2023/05/18 08:20:03;;;;;;;1.80;0.90;;;;;;;21.31;57.88;101250.19;5094360;28;20052;-55
2023/05/18 08:22:31;;;;;;;2.95;0.95;;;;;;;21.28;56.95;101253.13;5095240;28;20403;-55
2023/05/18 08:24:59;;;;;;;2.00;0.90;;;;;;;21.28;56.18;101253.13;5094893;28;20051;-55
2023/05/18 08:27:27;;;;;;;2.00;1.00;;;;;;;21.24;56.06;101249.84;5095200;28;20503;-55
2023/05/18 08:29:55;;;;;;;1.90;0.77;;;;;;;21.24;55.65;101257.94;5095137;28;20040;-55
2023/05/18 08:32:22;;;;;;;1.75;0.88;;;;;;;21.26;55.63;101251.56;5094924;28;20048;-56
2023/05/18 08:34:50;;;;;;;1.73;0.73;;;;;;;21.26;55.27;101247.03;5094623;28;20044;-56
2023/05/18 08:37:18;;;;;;;2.97;1.08;;;;;;;21.25;55.10;101242.63;5094764;28;20392;-55
2023/05/18 08:39:45;;;;;;;3.08;1.00;;;;;;;21.24;55.00;101246.31;5094841;28;20043;-56
2023/05/18 08:42:23;;;;;;;1.50;0.70;;;;;;;21.23;55.21;101247.31;5094722;28;20483;-55
2023/05/18 08:45:03;;;;;;;2.33;0.90;;;;;;;21.22;55.03;101243.75;5094738;28;20048;-55
2023/05/18 08:47:33;;;;;;;1.77;0.93;;;;;;;21.21;54.94;101244.72;5094634;28;20044;-54
2023/05/18 08:50:01;;;;;;;2.72;0.90;;;;;;;21.21;54.73;101249.28;5093257;28;20047;-55
2023/05/18 08:52:34;;;;;;;1.90;0.73;;;;;;;21.20;54.71;101248.44;5094196;28;20055;-56
2023/05/18 08:55:06;;;;;;;1.88;0.90;;;;;;;21.19;54.38;101253.97;5094196;28;20040;-55
2023/05/18 08:57:37;;;;;;;2.05;0.70;;;;;;;21.18;54.32;101246.84;5094397;28;20522;-55
2023/05/18 09:00:08;;;;;;;2.08;0.70;;;;;;;21.18;53.91;101249.53;5094562;28;20506;-55
2023/05/18 09:02:37;;;;;;;2.13;0.55;;;;;;;21.19;53.58;101256.66;5094132;28;20048;-55
2023/05/18 09:05:06;;;;;;;1.58;0.65;;;;;;;21.17;53.46;101246.00;5093771;28;20044;-55
2023/05/18 09:07:34;;;;;;;1.33;0.50;;;;;;;21.16;53.47;101255.06;5094412;28;20044;-55
2023/05/18 09:10:02;;;;;;;2.17;0.65;;;;;;;21.16;52.99;101255.06;5094272;28;20047;-54
2023/05/18 09:12:31;;;;;;;1.95;0.82;;;;;;;21.15;52.93;101260.59;5093859;28;20489;-54
2023/05/18 09:15:00;;;;;;;1.63;0.52;;;;;;;21.12;52.91;101259.00;5093943;28;20048;-55
2023/05/18 09:17:27;;;;;;;2.15;0.60;;;;;;;21.13;52.75;101271.47;5093104;28;20388;-55
2023/05/18 09:19:55;;;;;;;1.38;0.52;;;;;;;21.14;52.37;101259.72;5092726;28;20043;-54
2023/05/18 09:22:22;;;;;;;1.00;0.40;;;;;;;21.14;52.31;101266.94;5092415;28;20067;-55
2023/05/18 09:24:50;;;;;;;1.33;0.50;;;;;;;21.14;51.97;101269.63;5094111;28;20499;-52
2023/05/18 09:27:17;;;;;;;2.78;0.50;;;;;;;21.13;51.43;101276.84;5094024;28;20495;-54
2023/05/18 09:29:56;;;;;;;1.77;0.70;;;;;;;21.10;50.88;101274.44;5093553;28;20044;-51
2023/05/18 09:32:25;;;;;;;1.92;0.50;;;;;;;21.09;50.75;101269.19;5093648;28;20071;-53
2023/05/18 09:34:52;;;;;;;1.80;0.60;;;;;;;21.08;50.07;101279.09;5093786;28;20048;-54
2023/05/18 09:37:20;;;;;;;2.08;0.70;;;;;;;21.06;50.52;101275.69;5094161;28;20056;-54
2023/05/18 09:40:07;;;;;;;2.15;0.75;;;;;;;21.05;50.51;101278.50;5093934;28;20051;-55
2023/05/18 09:42:38;;;;;;;1.85;0.75;;;;;;;21.05;50.56;101279.38;5093873;28;20484;-54
2023/05/18 09:45:25;;;;;;;2.22;0.45;;;;;;;21.05;50.96;101273.97;5093616;28;20479;-55
2023/05/18 09:47:53;;;;;;;1.45;0.63;;;;;;;21.05;51.09;101282.06;5093672;28;20053;-55
2023/05/18 09:50:21;;;;;;;4.00;0.73;;;;;;;21.05;51.20;101273.97;5093698;28;20044;-50
2023/05/18 09:52:49;;;;;;;2.03;0.85;;;;;;;21.05;51.31;101284.75;5093584;28;20048;-51
2023/05/18 09:55:18;;;;;;;2.17;0.73;;;;;;;21.05;51.39;101284.75;5093361;28;20050;-50
2023/05/18 09:57:49;;;;;;;1.73;0.70;;;;;;;21.05;51.62;101284.75;5093533;28;20047;-54
2023/05/18 10:00:19;;;;;;;1.42;0.50;;;;;;;21.03;51.85;101286.72;5093605;28;20043;-53
2023/05/18 10:02:51;;;;;;;7.28;0.88;;;;;;;21.04;52.07;101283.03;5093393;28;20510;-52
2023/05/18 10:05:19;;;;;;;1.92;0.85;;;;;;;21.02;51.99;101289.53;5093284;28;20397;-51
2023/05/18 10:07:47;;;;;;;3.33;0.60;;;;;;;21.01;51.94;101296.75;5092365;28;20063;-49
2023/05/18 10:10:22;;;;;;;1.90;0.80;;;;;;;21.00;51.81;101287.00;5093331;28;20051;-54
2023/05/18 10:12:50;;;;;;;2.65;0.77;;;;;;;20.99;51.47;101285.28;5093586;28;20055;-54
2023/05/18 10:15:20;;;;;;;2.00;0.65;;;;;;;20.98;51.16;101283.56;5093359;28;20055;-54
2023/05/18 10:17:49;;;;;;;2.67;0.65;;;;;;;20.98;51.03;101278.19;5093296;28;20055;-54
2023/05/18 10:20:19;;;;;;;3.13;0.98;;;;;;;20.97;51.15;101282.72;5092539;28;20411;-49
2023/05/18 10:22:47;;;;;;;4.07;0.85;;;;;;;20.99;51.56;101279.91;5093218;28;20040;-49
2023/05/18 10:25:20;;;;;;;2.13;0.77;;;;;;;21.01;51.84;101283.31;5092943;28;20499;-48
2023/05/18 10:27:50;;;;;;;3.30;0.98;;;;;;;21.03;52.03;101278.66;5093353;28;20047;-49
2023/05/18 10:30:18;;;;;;;2.05;0.70;;;;;;;21.04;51.99;101280.34;5093082;28;20036;-55
2023/05/18 10:32:47;;;;;;;2.25;0.80;;;;;;;21.05;52.16;101284.75;5093202;28;20063;-55
2023/05/18 10:35:15;;;;;;;2.85;0.60;;;;;;;21.07;52.25;101281.94;5095435;28;20044;-55
2023/05/18 10:37:49;;;;;;;1.23;0.60;;;;;;;21.09;52.28;101285.34;5097385;28;20040;-55
2023/05/18 10:40:16;;;;;;;1.65;0.85;;;;;;;21.10;52.50;101277.13;5097576;28;20055;-49
2023/05/18 10:42:45;;;;;;;1.52;0.70;;;;;;;21.11;52.55;101281.53;5097189;28;20047;-49
2023/05/18 10:45:14;;;;;;;2.25;0.90;;;;;;;21.12;52.82;101275.16;5096687;28;20051;-50
2023/05/18 10:47:43;;;;;;;1.95;0.68;;;;;;;21.12;52.88;101280.53;5096711;28;20043;-48
2023/05/18 10:50:12;;;;;;;1.67;0.60;;;;;;;21.13;53.02;101276.84;5096953;28;20048;-49
2023/05/18 10:52:40;;;;;;;1.15;0.60;;;;;;;21.14;53.21;101277.72;5096965;28;20048;-49
2023/05/18 10:55:08;;;;;;;1.63;0.57;;;;;;;21.15;53.09;101280.28;5096900;28;20044;-50
2023/05/18 10:57:44;;;;;;;1.25;0.43;;;;;;;21.16;53.25;101267.69;5096863;28;20044;-52
2023/05/18 11:00:12;;;;;;;3.55;0.75;;;;;;;21.18;53.39;101279.16;5097082;28;20502;-49
2023/05/18 11:02:41;;;;;;;1.65;0.60;;;;;;;21.17;53.55;101275.59;5096698;28;20068;-51
2023/05/18 11:05:10;;;;;;;2.30;0.68;;;;;;;21.17;53.66;101272.91;5096830;28;20040;-49
2023/05/18 11:07:38;;;;;;;1.65;0.77;;;;;;;21.17;53.72;101264.84;5096798;28;20036;-50
2023/05/18 11:10:10;;;;;;;1.63;0.70;;;;;;;21.17;53.66;101269.38;5096663;28;20047;-49
2023/05/18 11:12:39;;;;;;;2.43;0.70;;;;;;;21.17;53.64;101270.22;5096435;28;20072;-51
2023/05/18 11:15:07;;;;;;;3.40;0.85;;;;;;;21.19;53.82;101270.09;5095297;28;20097;-52
2023/05/18 11:17:35;;;;;;;1.65;0.70;;;;;;;21.18;53.85;101269.22;5094920;28;20048;-50
2023/05/18 11:22:56;;;;;;;2.05;0.95;;;;;;;21.19;54.01;101264.72;5096076;28;20404;-56
2023/05/18 11:25:27;;;;;;;2.15;0.65;;;;;;;21.19;54.02;101265.56;5096276;28;20051;-56
2023/05/18 11:28:01;;;;;;;1.77;0.50;;;;;;;21.19;54.01;101257.50;5075973;28;20059;-55
2023/05/18 11:30:29;;;;;;;2.20;0.70;;;;;;;21.20;53.95;101261.03;5075663;28;20056;-56
2023/05/18 11:33:09;;;;;;;1.60;0.70;;;;;;;21.20;54.05;101258.34;5075575;28;20049;-56
2023/05/18 11:36:10;;;;;;;1.73;0.68;;;;;;;21.19;54.16;101252.09;5076357;28;20051;-56
2023/05/18 11:38:49;;;;;;;2.38;0.60;;;;;;;21.19;54.20;101249.41;5095809;28;20044;-55
2023/05/18 11:41:40;;;;;;;1.95;0.80;;;;;;;21.21;54.23;101254.66;5095512;28;20052;-50